Time;durP1;ratioP1;P1;durP2;ratioP2;P2;SDS_P1;SDS_P2;PMS_P1;PMS_P2;Temp;Humidity;BMP_temperature;BMP_pressure;BME280_temperature;BME280_humidity;BME280_pressure;Samples;Min_cycle;Max_cycle;Signal;HPM_P1;HPM_P2
2022/03/23 00:01:45;;;;;;;;;;;;;;;2.37;68.75;101955.53;5059113;28;1322;-90
2022/03/23 00:04:10;;;;;;;;;;;;;;;2.30;69.17;101951.94;5058965;28;1813;-90
2022/03/23 00:06:35;;;;;;;;;;;;;;;2.15;69.55;101950.06;5058507;28;1384;-91
2022/03/23 00:09:01;;;;;;;;;;;;;;;2.14;69.40;101951.09;5044447;28;1343;-90
2022/03/23 00:11:26;;;;;;;;;;;;;;;1.93;69.52;101944.81;5054860;28;1782;-90
2022/03/23 00:13:51;;;;;;;;;;;;;;;1.47;71.36;101945.03;5057744;28;1364;-90
2022/03/23 00:16:17;;;;;;;;;;;;;;;1.66;71.39;101947.16;5068599;28;1733;-90
2022/03/23 00:18:42;;;;;;;;;;;;;;;1.78;70.41;101944.84;5038739;28;1961;-90
2022/03/23 00:21:07;;;;;;;;;;;;;;;1.55;69.96;101939.53;5052771;28;1719;-90
2022/03/23 00:23:32;;;;;;;;;;;;;;;1.60;70.68;101939.00;5058634;28;1706;-90
2022/03/23 00:25:59;;;;;;;;;;;;;;;1.83;70.34;101948.66;5058579;28;1479;-90
2022/03/23 00:28:24;;;;;;;;;;;;;;;1.81;69.58;101949.84;5076750;28;1360;-90
2022/03/23 00:30:50;;;;;;;;;;;;;;;2.02;69.60;101947.22;5050656;28;1355;-90
2022/03/23 00:33:15;;;;;;;;;;;;;;;1.90;70.15;101951.44;5052257;28;1559;-89
2022/03/23 00:35:41;;;;;;;;;;;;;;;1.86;69.55;101959.09;5052576;28;1487;-90
2022/03/23 00:38:06;;;;;;;;;;;;;;;1.87;69.69;101957.22;5053409;28;1898;-89
2022/03/23 00:40:31;;;;;;;;;;;;;;;1.78;69.54;101952.94;5057677;28;1550;-90
2022/03/23 00:42:59;;;;;;;;;;;;;;;1.85;70.50;101956.56;5074978;28;1438;-91
2022/03/23 00:45:24;;;;;;;;;;;;;;;1.83;70.04;101950.50;5057931;28;1327;-90
2022/03/23 00:47:50;;;;;;;;;;;;;;;1.89;69.73;101952.44;5057944;28;1367;-90
2022/03/23 00:50:15;;;;;;;;;;;;;;;1.85;69.97;101952.00;5054504;28;1419;-90
2022/03/23 00:52:40;;;;;;;;;;;;;;;1.70;69.60;101956.56;5038484;28;1296;-90
2022/03/23 00:55:08;;;;;;;;;;;;;;;1.42;70.76;101948.28;5050674;28;1376;-90
2022/03/23 00:57:33;;;;;;;;;;;;;;;1.53;71.43;101953.19;5054408;28;1902;-89
2022/03/23 00:59:58;;;;;;;;;;;;;;;1.66;70.87;101952.56;5042308;28;1432;-90
2022/03/23 01:02:23;;;;;;;;;;;;;;;1.65;70.60;101952.75;5058108;28;1320;-91
2022/03/23 01:04:48;;;;;;;;;;;;;;;1.49;70.57;101956.47;5057587;28;1730;-91
2022/03/23 01:07:13;;;;;;;;;;;;;;;1.24;70.27;101955.88;5058102;28;1281;-89
2022/03/23 01:09:39;;;;;;;;;;;;;;;1.12;70.93;101950.09;5048705;28;1420;-90
2022/03/23 01:12:04;;;;;;;;;;;;;;;1.12;70.97;101949.25;5055464;28;1617;-90
2022/03/23 01:14:29;;;;;;;;;;;;;;;1.04;71.42;101950.16;5057330;28;1552;-91
2022/03/23 01:16:54;;;;;;;;;;;;;;;0.86;72.09;101941.56;5057660;28;1913;-90
2022/03/23 01:19:22;;;;;;;;;;;;;;;0.90;72.37;101942.06;5057078;28;1668;-91
2022/03/23 01:21:48;;;;;;;;;;;;;;;1.10;72.59;101944.06;5058013;28;1547;-90
2022/03/23 01:24:13;;;;;;;;;;;;;;;0.97;71.87;101946.53;5057177;28;1551;-90
2022/03/23 01:26:38;;;;;;;;;;;;;;;1.06;72.17;101945.44;5075896;28;1026;-91
2022/03/23 01:29:03;;;;;;;;;;;;;;;1.23;72.32;101939.88;5057423;28;1820;-91
2022/03/23 01:31:29;;;;;;;;;;;;;;;1.20;71.72;101938.38;5045426;28;1510;-91
2022/03/23 01:33:59;;;;;;;;;;;;;;;1.14;71.77;101942.66;5048065;28;1407;-91
2022/03/23 01:36:24;;;;;;;;;;;;;;;1.12;71.96;101942.00;5051317;28;1394;-91
2022/03/23 01:38:49;;;;;;;;;;;;;;;1.18;72.03;101939.63;5042157;28;1961;-91
2022/03/23 01:41:14;;;;;;;;;;;;;;;1.17;71.74;101936.06;5057204;28;1498;-90
2022/03/23 01:43:40;;;;;;;;;;;;;;;1.17;71.96;101943.31;5043386;28;1672;-91
2022/03/23 01:46:05;;;;;;;;;;;;;;;1.23;71.79;101942.59;5054149;28;1387;-91
2022/03/23 01:48:30;;;;;;;;;;;;;;;1.31;71.58;101934.41;5056611;28;1805;-91
2022/03/23 01:50:57;;;;;;;;;;;;;;;1.23;70.50;101938.03;5074578;28;1427;-91
2022/03/23 01:53:22;;;;;;;;;;;;;;;0.91;70.45;101927.56;5055095;28;1451;-91
2022/03/23 01:55:47;;;;;;;;;;;;;;;0.72;71.54;101929.72;5056886;28;1766;-91
2022/03/23 01:58:13;;;;;;;;;;;;;;;0.76;72.20;101932.91;5056556;28;1963;-92
2022/03/23 02:00:38;;;;;;;;;;;;;;;0.84;72.15;101932.00;5053888;28;1393;-91
2022/03/23 02:03:04;;;;;;;;;;;;;;;0.93;71.76;101931.75;5042312;28;1572;-91
2022/03/23 02:05:29;;;;;;;;;;;;;;;0.68;71.39;101935.69;5069031;28;1765;-91
2022/03/23 02:07:55;;;;;;;;;;;;;;;0.38;72.38;101927.47;5048102;28;1746;-91
2022/03/23 02:10:20;;;;;;;;;;;;;;;0.47;72.85;101930.09;5050445;28;1363;-91
2022/03/23 02:12:45;;;;;;;;;;;;;;;0.45;72.35;101903.34;5050627;28;1459;-91
2022/03/23 02:15:16;;;;;;;;;;;;;;;0.48;72.23;101929.94;5043880;28;1707;-91
2022/03/23 02:17:42;;;;;;;;;;;;;;;0.52;72.22;101928.53;5038421;28;1960;-91
2022/03/23 02:20:08;;;;;;;;;;;;;;;0.59;72.43;101924.13;5043261;28;1444;-90
2022/03/23 02:22:33;;;;;;;;;;;;;;;0.49;72.37;101926.22;5056487;28;1306;-92
2022/03/23 02:24:58;;;;;;;;;;;;;;;0.57;73.05;101920.78;5056187;28;1790;-92
2022/03/23 02:27:25;;;;;;;;;;;;;;;0.56;72.71;101923.63;5055661;28;1448;-90
2022/03/23 02:29:52;;;;;;;;;;;;;;;0.49;72.15;101928.91;5056592;28;1353;-91
2022/03/23 02:32:17;;;;;;;;;;;;;;;0.48;72.39;101929.09;5056530;28;1343;-92
2022/03/23 02:34:42;;;;;;;;;;;;;;;0.53;72.89;101921.28;5056393;28;1246;-91
2022/03/23 02:37:08;;;;;;;;;;;;;;;0.59;73.17;101928.69;5056020;28;1902;-91
2022/03/23 02:39:34;;;;;;;;;;;;;;;0.69;72.54;101923.84;5056196;28;1272;-91
2022/03/23 02:41:59;;;;;;;;;;;;;;;0.62;72.25;101923.75;5056229;28;1191;-91
2022/03/23 02:44:27;;;;;;;;;;;;;;;0.53;72.04;101918.59;5056094;28;1805;-92
2022/03/23 02:46:52;;;;;;;;;;;;;;;0.42;72.84;101921.72;5056473;28;1402;-92
2022/03/23 02:49:20;;;;;;;;;;;;;;;0.52;73.00;101920.44;5056012;28;1645;-92
2022/03/23 02:51:45;;;;;;;;;;;;;;;0.47;72.01;101920.16;5061136;28;837;-92
2022/03/23 03:02:54;;;;;;;;;;;;;;;0.08;73.19;101924.81;5054838;28;644;-92
2022/03/23 03:05:19;;;;;;;;;;;;;;;-0.03;73.25;101920.66;5035847;28;881;-92
2022/03/23 03:10:30;;;;;;;;;;;;;;;-0.03;74.83;101928.72;5060131;28;1145;-92
2022/03/23 03:12:56;;;;;;;;;;;;;;;-0.01;73.27;101924.84;5044552;28;1514;-92
2022/03/23 03:15:21;;;;;;;;;;;;;;;-0.03;73.92;101924.19;5056748;28;1298;-92
2022/03/23 03:17:47;;;;;;;;;;;;;;;0.14;73.96;101919.56;5056294;28;1902;-92
2022/03/23 03:20:14;;;;;;;;;;;;;;;0.18;73.37;101928.09;5056412;28;1196;-92
2022/03/23 03:22:39;;;;;;;;;;;;;;;0.28;73.47;101931.41;5056879;28;1252;-92
2022/03/23 03:25:04;;;;;;;;;;;;;;;0.27;73.31;101925.19;5056905;28;1212;-92
2022/03/23 03:27:30;;;;;;;;;;;;;;;0.36;73.00;101937.56;5056243;28;1283;-92
2022/03/23 03:29:55;;;;;;;;;;;;;;;0.32;72.77;101932.75;5056482;28;1201;-92
2022/03/23 03:32:20;;;;;;;;;;;;;;;0.18;72.86;101928.09;5056509;28;1232;-92
2022/03/23 03:34:46;;;;;;;;;;;;;;;0.08;72.74;101932.88;5056422;28;996;-92
2022/03/23 03:37:11;;;;;;;;;;;;;;;-0.03;73.10;101931.44;5057125;28;1953;-93
2022/03/23 03:39:36;;;;;;;;;;;;;;;-0.05;73.40;101933.44;5056641;28;1216;-92
2022/03/23 03:42:01;;;;;;;;;;;;;;;-0.11;73.61;101934.16;5056885;28;910;-92
2022/03/23 03:44:26;;;;;;;;;;;;;;;-0.15;73.38;101932.81;5056696;28;1372;-92
2022/03/23 03:46:52;;;;;;;;;;;;;;;-0.46;73.56;101927.41;5056836;28;1177;-92
2022/03/23 03:49:18;;;;;;;;;;;;;;;-0.60;74.88;101930.81;5074257;28;1223;-92
2022/03/23 03:51:43;;;;;;;;;;;;;;;-0.36;75.32;101933.44;5056579;28;1336;-93
2022/03/23 03:54:09;;;;;;;;;;;;;;;-0.33;74.34;101938.44;5057171;28;1248;-92
2022/03/23 03:56:34;;;;;;;;;;;;;;;-0.45;73.98;101935.31;5057110;28;1885;-92
2022/03/23 03:58:59;;;;;;;;;;;;;;;-0.35;74.39;101921.66;5056667;28;1248;-92
2022/03/23 04:01:24;;;;;;;;;;;;;;;-0.68;74.47;101933.53;5057207;28;1247;-91
2022/03/23 04:03:49;;;;;;;;;;;;;;;-0.52;74.87;101937.00;5036511;28;1109;-92
2022/03/23 04:06:14;;;;;;;;;;;;;;;-0.54;74.45;101933.66;5036002;28;996;-91
2022/03/23 04:08:39;;;;;;;;;;;;;;;-0.41;74.56;101935.78;5037891;28;1773;-92
2022/03/23 04:11:05;;;;;;;;;;;;;;;-0.30;74.22;101938.09;5055842;28;1314;-92
2022/03/23 04:13:30;;;;;;;;;;;;;;;-0.17;74.29;101932.97;5051704;28;1491;-91
2022/03/23 04:15:55;;;;;;;;;;;;;;;-0.16;72.94;101933.81;5036938;28;1193;-91
2022/03/23 04:18:20;;;;;;;;;;;;;;;-0.23;73.39;101941.75;5039406;28;1967;-92
2022/03/23 04:20:45;;;;;;;;;;;;;;;-0.20;73.83;101941.44;5047422;28;1486;-91
2022/03/23 04:23:11;;;;;;;;;;;;;;;-0.15;73.86;101935.50;5059611;28;1160;-92
2022/03/23 04:25:36;;;;;;;;;;;;;;;-0.21;73.70;101944.28;5059620;28;1187;-92
2022/03/23 04:28:01;;;;;;;;;;;;;;;-0.12;74.06;101945.94;5059385;28;1307;-92
2022/03/23 04:30:30;;;;;;;;;;;;;;;-0.14;73.80;101948.78;5059432;28;1195;-92
2022/03/23 04:32:56;;;;;;;;;;;;;;;-0.23;73.83;101952.53;5059666;28;1287;-91
2022/03/23 04:35:22;;;;;;;;;;;;;;;-0.42;73.79;101952.94;5060328;28;1227;-92
2022/03/23 04:37:47;;;;;;;;;;;;;;;-0.49;74.17;101955.47;5060120;28;1969;-92
2022/03/23 04:40:16;;;;;;;;;;;;;;;-0.59;74.53;101957.50;5060259;28;1171;-93
2022/03/23 04:42:42;;;;;;;;;;;;;;;-0.55;74.80;101955.34;5059603;28;1306;-92
2022/03/23 04:45:08;;;;;;;;;;;;;;;-0.39;75.20;101957.97;5059772;28;1191;-92
2022/03/23 04:47:33;;;;;;;;;;;;;;;-0.31;74.70;101963.31;5059418;28;1370;-92
2022/03/23 05:59:39;;;;;;;;;;;;;;;-0.54;73.82;102008.13;5053646;28;1219;-91
2022/03/23 06:02:04;;;;;;;;;;;;;;;-0.62;73.70;102006.28;5037412;28;1200;-91
2022/03/23 06:04:29;;;;;;;;;;;;;;;-0.72;74.60;102004.78;5037509;28;1276;-91
2022/03/23 06:06:54;;;;;;;;;;;;;;;-0.72;74.76;102008.31;5037316;28;1138;-91
2022/03/23 06:09:20;;;;;;;;;;;;;;;-0.67;75.13;102010.47;5037346;28;1093;-92
2022/03/23 06:12:04;;;;;;;;;;;;;;;-0.65;74.74;102017.38;5037398;28;1435;-92
2022/03/23 06:14:29;;;;;;;;;;;;;;;-0.56;74.73;102012.81;5036982;28;1180;-93
2022/03/23 06:16:55;;;;;;;;;;;;;;;-0.45;74.76;102013.31;5037060;28;1914;-91
2022/03/23 06:22:23;;;;;;;;;;;;;;;-0.32;74.92;102014.59;5055113;28;615;-91
2022/03/23 06:24:48;;;;;;;;;;;;;;;-0.29;74.46;102011.59;5036954;28;1252;-91
2022/03/23 06:27:13;;;;;;;;;;;;;;;-0.20;74.84;102014.06;5036966;28;1385;-92
2022/03/23 06:32:42;;;;;;;;;;;;;;;0.04;75.03;102015.84;5054866;28;607;-91
2022/03/23 06:35:08;;;;;;;;;;;;;;;0.12;74.65;102017.66;5036726;28;1652;-92
2022/03/23 06:37:34;;;;;;;;;;;;;;;0.07;74.73;102022.72;5036800;28;1951;-92
2022/03/23 06:40:32;;;;;;;;;;;;;;;0.05;75.33;102020.22;5035957;28;1256;-91
2022/03/23 06:42:57;;;;;;;;;;;;;;;0.07;75.21;102023.56;5036862;28;1378;-91
2022/03/23 06:45:22;;;;;;;;;;;;;;;0.25;75.59;102028.72;5037045;28;1315;-92
2022/03/23 06:47:50;;;;;;;;;;;;;;;0.40;75.55;102026.09;5036934;28;1418;-92
2022/03/23 06:50:21;;;;;;;;;;;;;;;0.47;75.92;102021.69;5036768;28;1365;-91
2022/03/23 06:52:47;;;;;;;;;;;;;;;0.52;75.86;102013.91;5037284;28;1266;-91
2022/03/23 06:55:30;;;;;;;;;;;;;;;0.64;74.90;102021.41;5013146;28;1426;-92
2022/03/23 07:01:26;;;;;;;;;;;;;;;0.72;76.14;102020.53;4955314;29;1359;-91
2022/03/23 07:07:15;;;;;;;;;;;;;;;1.06;73.56;102020.09;4954767;29;1363;-92
2022/03/23 07:25:21;;;;;;;;;;;;;;;1.98;71.65;102015.28;5159448;23;1477;-91
2022/03/23 07:27:47;;;;;;;;;;;;;;;2.03;71.82;102015.59;5055715;28;1377;-92
2022/03/23 07:30:13;;;;;;;;;;;;;;;2.14;71.82;102010.53;5074440;28;1260;-91
2022/03/23 07:33:00;;;;;;;;;;;;;;;2.28;71.35;102014.25;5040241;28;1291;-91
2022/03/23 07:35:25;;;;;;;;;;;;;;;2.38;71.51;102011.25;5057095;28;1505;-93
2022/03/23 07:37:50;;;;;;;;;;;;;;;2.47;70.35;102012.78;5057693;28;1906;-92
2022/03/23 07:43:40;;;;;;;;;;;;;;;2.64;69.16;102017.78;5074325;28;619;-91
2022/03/23 07:49:10;;;;;;;;;;;;;;;2.73;68.58;102009.53;5074236;28;592;-91
2022/03/23 07:51:44;;;;;;;;;;;;;;;2.82;68.71;102008.38;5056588;28;1367;-91
2022/03/23 07:54:10;;;;;;;;;;;;;;;2.86;68.88;102007.00;5077199;28;955;-91
2022/03/23 07:57:17;;;;;;;;;;;;;;;2.90;68.18;102002.84;5059600;28;1961;-92
2022/03/23 07:59:43;;;;;;;;;;;;;;;2.98;68.50;102005.41;5059978;28;1281;-91
2022/03/23 08:02:09;;;;;;;;;;;;;;;3.02;68.76;102015.69;5060461;28;1334;-93
2022/03/23 08:04:35;;;;;;;;;;;;;;;3.08;69.08;102010.50;5060369;28;1421;-92
2022/03/23 08:07:02;;;;;;;;;;;;;;;3.14;68.78;102016.00;5060021;28;1529;-91
2022/03/23 08:09:40;;;;;;;;;;;;;;;3.19;69.08;102010.84;5026813;28;924;-91
2022/03/23 08:12:17;;;;;;;;;;;;;;;3.24;69.39;102010.22;5076949;28;1020;-93
2022/03/23 08:14:46;;;;;;;;;;;;;;;3.30;69.30;102013.03;5076840;28;897;-91
2022/03/23 08:17:11;;;;;;;;;;;;;;;3.35;69.03;102013.25;5059696;28;1893;-91
2022/03/23 08:19:37;;;;;;;;;;;;;;;3.40;68.61;102021.59;5059187;28;1198;-92
2022/03/23 08:22:02;;;;;;;;;;;;;;;3.42;68.30;102014.13;5059801;28;1278;-91
2022/03/23 08:24:28;;;;;;;;;;;;;;;3.47;67.83;102016.28;5058984;28;1192;-91
2022/03/23 08:26:53;;;;;;;;;;;;;;;3.54;67.35;102017.16;5058822;28;1319;-91
2022/03/23 08:29:19;;;;;;;;;;;;;;;3.61;67.41;102011.78;5042464;28;1244;-91
2022/03/23 08:31:44;;;;;;;;;;;;;;;3.65;67.12;102010.38;5059380;28;1364;-91
2022/03/23 08:34:09;;;;;;;;;;;;;;;3.72;66.96;102009.38;5059093;28;1204;-91
2022/03/23 08:36:34;;;;;;;;;;;;;;;3.79;66.80;102006.69;5058740;28;1317;-91
2022/03/23 08:39:00;;;;;;;;;;;;;;;3.86;66.80;102010.28;5058968;28;1906;-91
2022/03/23 08:41:25;;;;;;;;;;;;;;;3.94;66.66;102012.81;5058799;28;1492;-91
2022/03/23 08:43:50;;;;;;;;;;;;;;;4.02;66.50;102003.69;5058841;28;1325;-91
2022/03/23 08:46:15;;;;;;;;;;;;;;;4.07;66.21;102002.06;5058906;28;1247;-91
2022/03/23 08:48:40;;;;;;;;;;;;;;;4.18;66.25;102006.06;5058739;28;1157;-91
2022/03/23 08:51:06;;;;;;;;;;;;;;;4.25;65.71;102004.25;5058724;28;1220;-91
2022/03/23 08:53:32;;;;;;;;;;;;;;;4.31;65.91;102003.41;5058671;28;1351;-90
2022/03/23 08:55:58;;;;;;;;;;;;;;;4.36;65.69;101998.22;5059144;28;1419;-90
2022/03/23 08:58:23;;;;;;;;;;;;;;;4.46;65.44;102003.25;5059130;28;1912;-91
2022/03/23 09:00:49;;;;;;;;;;;;;;;4.51;65.18;102000.75;5058607;28;1306;-90
2022/03/23 09:03:14;;;;;;;;;;;;;;;4.57;64.75;101998.09;5057532;28;1185;-90
2022/03/23 09:05:39;;;;;;;;;;;;;;;4.68;64.65;102009.38;5058876;28;1200;-90
2022/03/23 09:08:04;;;;;;;;;;;;;;;4.77;65.14;102000.84;5059264;28;1441;-91
2022/03/23 09:10:29;;;;;;;;;;;;;;;4.86;64.74;102004.19;5058986;28;1367;-91
2022/03/23 09:12:55;;;;;;;;;;;;;;;4.95;64.86;102003.78;5058368;28;1426;-91
2022/03/23 09:15:20;;;;;;;;;;;;;;;5.03;64.24;101996.47;5059018;28;1268;-92
2022/03/23 09:17:46;;;;;;;;;;;;;;;5.09;63.91;101992.97;5058383;28;1890;-91
2022/03/23 09:20:12;;;;;;;;;;;;;;;5.12;64.45;101995.25;5057978;28;1349;-90
2022/03/23 09:22:41;;;;;;;;;;;;;;;5.19;63.78;101993.41;5057946;28;1176;-90
2022/03/23 09:25:08;;;;;;;;;;;;;;;5.25;63.86;101990.66;5058363;28;1175;-91
2022/03/23 09:27:34;;;;;;;;;;;;;;;5.38;63.53;101992.53;5057913;28;1425;-90
2022/03/23 09:30:00;;;;;;;;;;;;;;;5.46;62.98;101992.31;5058234;28;1209;-91
2022/03/23 09:32:25;;;;;;;;;;;;;;;5.57;63.88;101986.25;5058232;28;1203;-90
2022/03/23 09:34:50;;;;;;;;;;;;;;;5.65;63.01;101991.47;5057816;28;1300;-91
2022/03/23 09:39:59;;;;;;;;;;;;;;;5.82;61.73;101977.44;5075955;28;1215;-90
2022/03/23 09:42:27;;;;;;;;;;;;;;;5.92;61.54;101975.97;5057667;28;1149;-90
2022/03/23 09:44:55;;;;;;;;;;;;;;;6.04;61.13;101971.53;5057897;28;1517;-90
2022/03/23 09:47:20;;;;;;;;;;;;;;;6.20;61.63;101975.66;5057889;28;1180;-91
2022/03/23 09:49:45;;;;;;;;;;;;;;;6.31;61.37;101965.97;5057496;28;1277;-91
2022/03/23 09:52:10;;;;;;;;;;;;;;;6.35;61.10;101959.91;5057484;28;1062;-90
2022/03/23 09:54:36;;;;;;;;;;;;;;;6.35;60.97;101959.06;5057391;28;1545;-90
2022/03/23 09:57:01;;;;;;;;;;;;;;;6.42;60.57;101960.69;5057744;28;1933;-91
2022/03/23 09:59:26;;;;;;;;;;;;;;;6.58;60.58;101963.97;5057460;28;1305;-91
2022/03/23 10:01:51;;;;;;;;;;;;;;;6.63;60.59;101962.25;5057560;28;1181;-92
2022/03/23 10:04:17;;;;;;;;;;;;;;;6.77;60.19;101963.00;5057885;28;1384;-90
2022/03/23 10:07:01;;;;;;;;;;;;;;;6.84;59.87;101958.34;5057562;28;1224;-90
2022/03/23 10:09:26;;;;;;;;;;;;;;;6.98;59.66;101957.19;5057054;28;1206;-90
2022/03/23 10:12:10;;;;;;;;;;;;;;;6.97;58.64;101944.66;5057029;28;1323;-91
2022/03/23 10:14:54;;;;;;;;;;;;;;;7.17;58.79;101948.03;5056453;28;1249;-91
2022/03/23 10:17:37;;;;;;;;;;;;;;;7.22;57.38;101945.50;5055214;28;1898;-90
2022/03/23 10:20:03;;;;;;;;;;;;;;;7.30;57.00;101946.25;5036523;28;1205;-91
2022/03/23 10:22:28;;;;;;;;;;;;;;;7.48;56.67;101940.84;5036817;28;1283;-90
2022/03/23 10:24:53;;;;;;;;;;;;;;;7.52;56.25;101942.03;5037130;28;1215;-90
2022/03/23 10:27:22;;;;;;;;;;;;;;;7.58;55.99;101933.81;5037161;28;1098;-91
2022/03/23 10:29:49;;;;;;;;;;;;;;;7.70;55.18;101930.34;5037191;28;1141;-90
2022/03/23 10:32:15;;;;;;;;;;;;;;;7.85;54.83;101930.78;5036671;28;1361;-91
2022/03/23 10:34:42;;;;;;;;;;;;;;;7.96;54.34;101936.31;5036581;28;1371;-91
2022/03/23 10:37:07;;;;;;;;;;;;;;;8.05;54.54;101934.13;5036327;28;1960;-91
2022/03/23 10:39:33;;;;;;;;;;;;;;;8.17;54.29;101932.25;5036520;28;1394;-90
2022/03/23 10:41:59;;;;;;;;;;;;;;;8.41;52.90;101927.81;5036276;28;1263;-91
2022/03/23 10:44:26;;;;;;;;;;;;;;;8.34;52.10;101924.31;5036424;28;1216;-91
2022/03/23 10:46:51;;;;;;;;;;;;;;;8.40;51.94;101931.59;5036207;28;1323;-90
2022/03/23 10:49:16;;;;;;;;;;;;;;;8.61;51.52;101925.59;5036474;28;1157;-91
2022/03/23 10:51:42;;;;;;;;;;;;;;;8.81;51.06;101928.03;5074856;23;2268;-87
2022/03/23 10:54:14;;;;;;;;;;;;;;;8.87;51.94;101929.81;5095816;28;1194;-88
2022/03/23 10:56:39;;;;;;;;;;;;;;;9.04;51.37;101922.63;5095829;28;1539;-86
2022/03/23 10:59:22;;;;;;;;;;;;;;;9.08;51.27;101925.72;5095698;28;1918;-88
2022/03/23 11:01:59;;;;;;;;;;;;;;;9.14;50.06;101924.75;5095876;28;1329;-88
2022/03/23 11:04:29;;;;;;;;;;;;;;;9.27;48.88;101923.72;5096008;28;1313;-86
2022/03/23 11:06:54;;;;;;;;;;;;;;;9.38;48.73;101914.66;5096422;28;1262;-88
2022/03/23 11:18:06;;;;;;;;;;;;;;;9.47;46.40;101899.56;5114198;28;1888;-87
2022/03/23 11:20:42;;;;;;;;;;;;;;;9.63;46.06;101898.00;5095487;28;1295;-88
2022/03/23 11:23:15;;;;;;;;;;;;;;;9.80;45.67;101898.94;5095541;28;1155;-86
2022/03/23 11:25:40;;;;;;;;;;;;;;;9.81;45.92;101893.22;5099133;28;1216;-88
2022/03/23 11:28:05;;;;;;;;;;;;;;;9.84;45.59;101891.91;5102564;28;1345;-85
2022/03/23 11:30:30;;;;;;;;;;;;;;;9.94;45.03;101886.66;5102414;28;1216;-86
2022/03/23 11:32:55;;;;;;;;;;;;;;;10.08;44.12;101898.97;5120697;28;821;-87
2022/03/23 11:35:22;;;;;;;;;;;;;;;10.22;43.48;101894.91;5102395;28;1290;-86
2022/03/23 11:37:47;;;;;;;;;;;;;;;10.54;43.04;101895.25;5120795;28;1902;-86
2022/03/23 11:40:13;;;;;;;;;;;;;;;10.45;43.44;101895.88;5102380;28;1349;-87
2022/03/23 11:42:38;;;;;;;;;;;;;;;10.56;43.20;101881.28;5120987;28;1279;-87
2022/03/23 11:45:04;;;;;;;;;;;;;;;10.47;42.40;101886.34;5120423;28;1051;-86
2022/03/23 11:47:39;;;;;;;;;;;;;;;10.43;41.61;101884.34;5102459;28;1289;-87
2022/03/23 11:50:04;;;;;;;;;;;;;;;10.67;41.84;101876.84;5102417;28;1306;-86
2022/03/23 11:52:35;;;;;;;;;;;;;;;10.80;42.52;101873.78;5102338;28;1318;-87
2022/03/23 11:57:55;;;;;;;;;;;;;;;10.83;40.31;101867.78;5121716;28;1970;-87
2022/03/23 12:00:21;;;;;;;;;;;;;;;10.81;41.51;101870.78;5102361;28;1214;-88
2022/03/23 12:02:46;;;;;;;;;;;;;;;10.86;41.06;101868.13;5102214;28;1258;-87
2022/03/23 12:05:41;;;;;;;;;;;;;;;10.95;41.54;101865.81;5102067;28;1187;-87
2022/03/23 12:08:06;;;;;;;;;;;;;;;11.04;41.17;101856.09;5084646;28;1338;-87
2022/03/23 12:10:32;;;;;;;;;;;;;;;11.17;41.69;101855.72;5102185;28;1278;-87
2022/03/23 12:13:15;;;;;;;;;;;;;;;11.40;40.24;101849.19;5102486;28;1207;-86
2022/03/23 12:15:59;;;;;;;;;;;;;;;11.41;40.47;101847.28;5120600;28;1002;-87
2022/03/23 12:19:00;;;;;;;;;;;;;;;11.52;40.31;101833.47;5102341;28;1897;-88
2022/03/23 12:21:29;;;;;;;;;;;;;;;11.60;40.77;101834.94;5020865;28;1357;-87
2022/03/23 12:24:04;;;;;;;;;;;;;;;11.69;39.34;101831.50;5104220;28;1528;-87
2022/03/23 12:26:33;;;;;;;;;;;;;;;11.78;39.60;101836.56;5102124;28;1266;-88
2022/03/23 12:29:03;;;;;;;;;;;;;;;11.87;38.23;101818.56;5101829;28;1306;-87
2022/03/23 12:31:36;;;;;;;;;;;;;;;11.94;37.90;101814.53;5101934;28;1292;-86
2022/03/23 12:34:12;;;;;;;;;;;;;;;12.05;39.36;101818.22;5100901;28;1211;-86
2022/03/23 12:39:29;;;;;;;;;;;;;;;12.26;37.26;101817.34;5117381;28;694;-87
2022/03/23 12:41:55;;;;;;;;;;;;;;;12.39;37.25;101807.88;5098662;28;1345;-87
2022/03/23 12:44:30;;;;;;;;;;;;;;;12.47;36.95;101805.47;5116731;28;995;-87
2022/03/23 12:46:56;;;;;;;;;;;;;;;12.45;37.72;101807.63;5098621;28;1295;-87
2022/03/23 12:57:52;;;;;;;;;;;;;;;13.02;34.37;101795.97;5116854;28;1902;-87
2022/03/23 13:00:29;;;;;;;;;;;;;;;13.21;34.39;101797.22;5116669;28;792;-86
2022/03/23 13:03:22;;;;;;;;;;;;;;;13.10;34.22;101800.97;5098263;28;1191;-87
2022/03/23 13:05:59;;;;;;;;;;;;;;;13.08;34.34;101794.94;5098165;28;1427;-87
2022/03/23 13:08:30;;;;;;;;;;;;;;;13.19;34.61;101791.16;5098158;28;1292;-87
2022/03/23 13:11:01;;;;;;;;;;;;;;;13.27;34.49;101790.66;5098086;28;1295;-86
2022/03/23 13:13:27;;;;;;;;;;;;;;;13.61;34.64;101777.31;5098280;28;1427;-87
2022/03/23 13:15:52;;;;;;;;;;;;;;;13.83;31.61;101773.56;5098288;28;1275;-86
2022/03/23 13:18:27;;;;;;;;;;;;;;;14.25;32.45;101781.63;5098078;28;1902;-87
2022/03/23 13:20:53;;;;;;;;;;;;;;;16.29;30.51;101778.00;5098195;28;1293;-87
2022/03/23 13:23:19;;;;;;;;;;;;;;;21.31;23.42;101769.16;5097662;28;1282;-86
2022/03/23 13:25:44;;;;;;;;;;;;;;;23.04;21.96;101758.91;5116124;28;816;-87
2022/03/23 13:28:12;;;;;;;;;;;;;;;22.48;21.47;101755.22;5099408;28;1153;-88
2022/03/23 13:30:37;;;;;;;;;;;;;;;20.72;22.81;101761.00;5097026;28;1290;-87
2022/03/23 13:33:07;;;;;;;;;;;;;;;19.62;24.63;101751.41;5096241;28;952;-86
2022/03/23 13:35:41;;;;;;;;;;;;;;;18.99;26.10;101757.63;5098024;28;1354;-87
2022/03/23 13:38:07;;;;;;;;;;;;;;;18.88;25.20;101753.44;5097637;28;1897;-87
2022/03/23 13:43:20;;;;;;;;;;;;;;;17.67;28.11;101745.09;5115968;28;642;-87
2022/03/23 13:45:48;;;;;;;;;;;;;;;17.42;29.18;101750.94;5097547;28;1222;-87
2022/03/23 13:48:13;;;;;;;;;;;;;;;18.07;28.00;101740.91;5096989;28;1136;-86
2022/03/23 13:50:46;;;;;;;;;;;;;;;19.18;26.19;101738.94;5097268;28;1275;-86
2022/03/23 13:53:13;;;;;;;;;;;;;;;20.63;23.95;101735.09;5097367;28;1293;-86
2022/03/23 13:55:38;;;;;;;;;;;;;;;20.36;23.94;101735.22;5079831;28;1378;-87
2022/03/23 13:58:06;;;;;;;;;;;;;;;19.12;27.51;101729.09;5076849;28;1944;-88
2022/03/23 14:00:32;;;;;;;;;;;;;;;17.63;26.80;101735.72;5077243;28;1299;-86
2022/03/23 14:02:57;;;;;;;;;;;;;;;16.88;30.40;101741.03;5076622;28;1283;-86
2022/03/23 14:05:25;;;;;;;;;;;;;;;16.68;27.68;101741.22;5072297;28;1293;-87
2022/03/23 14:07:50;;;;;;;;;;;;;;;17.69;29.26;101731.78;5076177;28;1368;-87
2022/03/23 14:10:15;;;;;;;;;;;;;;;19.01;27.05;101735.13;5076738;28;1568;-84
2022/03/23 14:12:40;;;;;;;;;;;;;;;18.65;27.83;101726.66;5061430;28;1424;-87
2022/03/23 14:15:05;;;;;;;;;;;;;;;19.05;26.89;101727.84;5071978;28;1296;-85
2022/03/23 14:17:34;;;;;;;;;;;;;;;19.69;26.99;101732.34;5073345;28;1914;-86
2022/03/23 14:20:04;;;;;;;;;;;;;;;18.76;27.64;101726.16;5070272;28;1488;-85
2022/03/23 14:22:30;;;;;;;;;;;;;;;18.01;27.68;101725.47;5094899;28;1513;-85
2022/03/23 14:24:58;;;;;;;;;;;;;;;19.78;24.66;101724.09;5076572;28;1452;-87
2022/03/23 14:27:25;;;;;;;;;;;;;;;19.73;24.83;101722.25;5076700;28;1349;-87
2022/03/23 14:29:56;;;;;;;;;;;;;;;21.51;23.32;101715.66;5077040;28;1224;-86
2022/03/23 14:32:29;;;;;;;;;;;;;;;23.65;20.36;101707.16;5085937;28;1373;-87
2022/03/23 14:34:54;;;;;;;;;;;;;;;25.42;19.61;101707.94;5075211;28;1295;-87
2022/03/23 14:37:19;;;;;;;;;;;;;;;24.69;19.74;101701.44;5090835;28;1893;-87
2022/03/23 14:39:45;;;;;;;;;;;;;;;22.79;20.79;101700.03;5062211;28;1293;-87
2022/03/23 14:42:12;;;;;;;;;;;;;;;21.61;23.06;101703.34;5077348;28;1364;-86
2022/03/23 14:44:38;;;;;;;;;;;;;;;21.15;23.13;101701.94;5083925;28;1229;-86
2022/03/23 14:47:10;;;;;;;;;;;;;;;20.33;24.96;101697.72;5069362;28;1350;-86
2022/03/23 14:49:37;;;;;;;;;;;;;;;20.83;24.30;101699.50;5056472;28;1578;-87
2022/03/23 14:52:03;;;;;;;;;;;;;;;21.30;24.01;101698.72;5093119;28;1322;-87
2022/03/23 14:54:28;;;;;;;;;;;;;;;20.08;27.37;101690.00;5092903;28;1385;-85
2022/03/23 14:56:54;;;;;;;;;;;;;;;18.58;28.23;101695.72;5076574;28;896;-87
2022/03/23 14:59:21;;;;;;;;;;;;;;;20.14;26.17;101699.06;5092847;28;1893;-86
2022/03/23 15:01:47;;;;;;;;;;;;;;;19.94;24.62;101692.84;5074161;28;1695;-86
2022/03/23 15:04:13;;;;;;;;;;;;;;;18.81;27.51;101692.78;5094601;28;1520;-86
2022/03/23 15:14:50;;;;;;;;;;;;;;;18.42;26.79;101693.19;5081993;28;802;-87
2022/03/23 15:17:16;;;;;;;;;;;;;;;18.02;28.26;101693.88;5094266;28;1902;-86
2022/03/23 15:19:41;;;;;;;;;;;;;;;17.99;27.56;101686.16;5075914;28;1485;-86
2022/03/23 15:22:09;;;;;;;;;;;;;;;18.65;25.91;101683.09;5076343;28;1322;-87
2022/03/23 15:24:35;;;;;;;;;;;;;;;18.90;25.98;101684.56;5072986;28;1482;-87
2022/03/23 15:27:00;;;;;;;;;;;;;;;18.51;27.90;101683.06;5065404;28;1406;-85